| time (UTC) | temp C | wind direction | speed KPH | gust KPH | rain 1hr cm | rain 24hr cm | rain mn cm | humidity % | barometer mb |
| 20260905020234 | 24 | 68 | 0.0 | 0.0 | 0.00 | 0.00 | 0.00 | 92 | 1006.7 |
| 20260905015818 | 24 | 68 | 0.0 | 0.0 | 0.00 | 0.00 | 0.00 | 91 | 1006.7 |
| 20260905014931 | 24 | 45 | 0.0 | 0.0 | 0.00 | 0.00 | 0.00 | 91 | 1006.7 |
| 20260905014459 | 24 | 45 | 0.0 | 0.0 | 0.00 | 0.00 | 0.00 | 91 | 1006.7 |
| 20260905014044 | 23 | 68 | 0.0 | 0.0 | 0.00 | 0.00 | 0.00 | 92 | 1006.7 |
| 20260905013629 | 23 | 68 | 1.6 | 1.6 | 0.00 | 0.00 | 0.00 | 92 | 1006.7 |
| 20260905013212 | 23 | 68 | 0.0 | 0.0 | 0.00 | 0.00 | 0.00 | 92 | 1006.0 |
| 20260905012741 | 23 | 90 | 4.8 | 4.8 | 0.00 | 0.00 | 0.00 | 92 | 1006.0 |
| 20260905012323 | 24 | 68 | 3.2 | 3.2 | 0.00 | 0.00 | 0.00 | 92 | 1006.0 |
| 20260905011907 | 24 | 270 | 0.0 | 0.0 | 0.00 | 0.00 | 0.00 | 92 | 1006.0 |
| 20260905011449 | 24 | 270 | 0.0 | 0.0 | 0.00 | 0.00 | 0.00 | 92 | 1006.0 |
| 20260905010544 | 24 | 270 | 0.0 | 0.0 | 0.00 | 0.00 | 0.00 | 92 | 1006.0 |
| 20260905010128 | 24 | 270 | 0.0 | 0.0 | 0.00 | 0.00 | 0.00 | 92 | 1006.0 |
| 20260905005711 | 24 | 270 | 1.6 | 1.6 | 0.00 | 0.00 | 0.00 | 92 | 1006.0 |
| 20260905005255 | 24 | 270 | 0.0 | 0.0 | 0.00 | 0.00 | 0.00 | 91 | 1006.0 |
| 20260905004824 | 24 | 270 | 1.6 | 1.6 | 0.00 | 0.00 | 0.00 | 91 | 1006.0 |
| 20260905004407 | 24 | 270 | 0.0 | 0.0 | 0.00 | 0.00 | 0.00 | 91 | 1006.0 |
| 20260905003950 | 24 | 270 | 0.0 | 0.0 | 0.00 | 0.00 | 0.00 | 91 | 1006.0 |
| 20260905003104 | 25 | 270 | 0.0 | 0.0 | 0.00 | 0.00 | 0.00 | 91 | 1006.7 |
| 20260905002648 | 25 | 270 | 0.0 | 0.0 | 0.00 | 0.00 | 0.00 | 91 | 1006.7 |
| 20260905002231 | 25 | 225 | 0.0 | 0.0 | 0.00 | 0.00 | 0.00 | 91 | 1006.7 |
| 20260905001817 | 25 | 225 | 0.0 | 0.0 | 0.00 | 0.00 | 0.00 | 91 | 1006.7 |
| 20260905001400 | 25 | 225 | 0.0 | 0.0 | 0.00 | 0.00 | 0.00 | 90 | 1006.7 |
| 20260905000943 | 25 | 225 | 1.6 | 1.6 | 0.00 | 0.00 | 0.00 | 90 | 1006.7 |
| 20260905000525 | 25 | 270 | 0.0 | 0.0 | 0.00 | 0.00 | 0.00 | 90 | 1006.7 |
| 20260905000105 | 25 | 270 | 6.4 | 6.4 | 0.00 | 0.00 | 0.00 | 90 | 1006.7 |
| 20260904235217 | 25 | 270 | 1.6 | 1.6 | 0.00 | 0.00 | 0.00 | 89 | 1006.7 |
| 20260904234801 | 25 | 270 | 0.0 | 0.0 | 0.00 | 0.00 | 0.00 | 89 | 1006.7 |
| 20260904234331 | 26 | 270 | 0.0 | 0.0 | 0.00 | 0.00 | 0.00 | 87 | 1006.7 |
| 20260904233914 | 26 | 270 | 0.0 | 0.0 | 0.00 | 0.00 | 0.00 | 86 | 1006.7 |
| 20260904233443 | 26 | 270 | 0.0 | 0.0 | 0.00 | 0.00 | 0.00 | 85 | 1006.7 |
| 20260904233012 | 26 | 270 | 0.0 | 0.0 | 0.00 | 0.00 | 0.00 | 85 | 1006.7 |
| 20260904232111 | 26 | 270 | 0.0 | 0.0 | 0.00 | 0.00 | 0.00 | 83 | 1006.7 |
| 20260904231654 | 26 | 270 | 0.0 | 0.0 | 0.00 | 0.00 | 0.00 | 83 | 1007.7 |
| 20260904231223 | 26 | 270 | 0.0 | 0.0 | 0.00 | 0.00 | 0.00 | 83 | 1007.7 |
| 20260904230752 | 26 | 270 | 0.0 | 0.0 | 0.00 | 0.00 | 0.00 | 83 | 1007.7 |
| 20260904225849 | 26 | 270 | 0.0 | 0.0 | 0.00 | 0.00 | 0.00 | 83 | 1007.7 |
| 20260904225432 | 26 | 270 | 1.6 | 1.6 | 0.00 | 0.00 | 0.00 | 82 | 1007.7 |
| 20260904225016 | 26 | 270 | 0.0 | 0.0 | 0.00 | 0.00 | 0.00 | 83 | 1007.7 |
| 20260904224529 | 26 | 248 | 0.0 | 0.0 | 0.00 | 0.00 | 0.00 | 85 | 1006.7 |
| 20260904223153 | 26 | 270 | 3.2 | 3.2 | 0.00 | 0.00 | 0.00 | 85 | 1006.7 |
| 20260904222736 | 26 | 248 | 3.2 | 3.2 | 0.00 | 0.00 | 0.00 | 84 | 1006.7 |
| 20260904222319 | 26 | 180 | 3.2 | 3.2 | 0.00 | 0.00 | 0.00 | 85 | 1006.7 |
| 20260904221902 | 26 | 248 | 0.0 | 0.0 | 0.00 | 0.00 | 0.00 | 85 | 1006.7 |
| 20260904220943 | 26 | 248 | 1.6 | 1.6 | 0.00 | 0.00 | 0.00 | 84 | 1006.7 |
| 20260904220523 | 26 | 248 | 0.0 | 0.0 | 0.00 | 0.00 | 0.00 | 84 | 1006.7 |
| 20260904215646 | 26 | 22 | 0.0 | 0.0 | 0.00 | 0.00 | 0.00 | 84 | 1007.7 |
| 20260904215229 | 27 | 22 | 0.0 | 0.0 | 0.00 | 0.00 | 0.00 | 84 | 1007.7 |
| 20260904214755 | 27 | 22 | 0.0 | 0.0 | 0.00 | 0.00 | 0.00 | 83 | 1007.7 |
| 20260904214339 | 27 | 22 | 0.0 | 0.0 | 0.00 | 0.00 | 0.00 | 82 | 1007.7 |
| 20260904213902 | 27 | 22 | 0.0 | 0.0 | 0.00 | 0.00 | 0.00 | 83 | 1007.7 |
| 20260904213446 | 27 | 22 | 0.0 | 0.0 | 0.00 | 0.00 | 0.00 | 82 | 1007.7 |
| 20260904213013 | 27 | 68 | 0.0 | 0.0 | 0.00 | 0.00 | 0.00 | 82 | 1007.7 |
| 20260904212556 | 27 | 225 | 0.0 | 0.0 | 0.00 | 0.00 | 0.00 | 82 | 1007.7 |
| 20260904212140 | 26 | 225 | 0.0 | 0.0 | 0.00 | 0.00 | 0.00 | 82 | 1007.7 |
| 20260904211708 | 26 | 202 | 0.0 | 0.0 | 0.00 | 0.00 | 0.00 | 82 | 1007.7 |
| 20260904211236 | 26 | 202 | 0.0 | 0.0 | 0.00 | 0.00 | 0.00 | 84 | 1007.7 |
| 20260904210331 | 26 | 248 | 3.2 | 3.2 | 0.00 | 0.00 | 0.00 | 85 | 1007.7 |
| 20260904205914 | 27 | 248 | 3.2 | 3.2 | 0.00 | 0.00 | 0.00 | 84 | 1007.7 |
| 20260904204554 | 27 | 270 | 1.6 | 1.6 | 0.00 | 0.00 | 0.00 | 82 | 1006.7 |
| 20260904204137 | 27 | 292 | 0.0 | 0.0 | 0.00 | 0.00 | 0.00 | 81 | 1006.7 |
| 20260904203650 | 27 | 292 | 0.0 | 0.0 | 0.00 | 0.00 | 0.00 | 82 | 1006.7 |
| 20260904202801 | 27 | 292 | 1.6 | 1.6 | 0.00 | 0.00 | 0.00 | 82 | 1007.7 |
| 20260904202346 | 27 | 292 | 3.2 | 3.2 | 0.00 | 0.00 | 0.00 | 81 | 1007.7 |
| 20260904201928 | 27 | 158 | 1.6 | 1.6 | 0.00 | 0.00 | 0.00 | 81 | 1007.7 |
| 20260904201512 | 28 | 112 | 0.0 | 0.0 | 0.00 | 0.00 | 0.00 | 84 | 1006.7 |
| 20260904200606 | 29 | 68 | 8.0 | 8.0 | 0.00 | 0.00 | 0.00 | 74 | 1006.7 |
| 20260904195715 | 32 | 45 | 9.7 | 9.7 | 0.00 | 0.00 | 0.00 | 70 | 1006.7 |
| 20260904195241 | 33 | 90 | 6.4 | 6.4 | 0.00 | 0.00 | 0.00 | 65 | 1006.7 |
| 20260904194810 | 34 | 112 | 3.2 | 3.2 | 0.00 | 0.00 | 0.00 | 60 | 1006.7 |
| 20260904194337 | 34 | 68 | 1.6 | 1.6 | 0.00 | 0.00 | 0.00 | 55 | 1006.7 |
| 20260904193917 | 34 | 90 | 0.0 | 0.0 | 0.00 | 0.00 | 0.00 | 54 | 1006.7 |
| 20260904192958 | 33 | 90 | 3.2 | 3.2 | 0.00 | 0.00 | 0.00 | 53 | 1006.7 |
| 20260904192545 | 33 | 68 | 3.2 | 3.2 | 0.00 | 0.00 | 0.00 | 55 | 1006.7 |
| 20260904192113 | 32 | 68 | 1.6 | 1.6 | 0.00 | 0.00 | 0.00 | 58 | 1006.7 |
| 20260904191643 | 32 | 112 | 0.0 | 0.0 | 0.00 | 0.00 | 0.00 | 58 | 1006.7 |
| 20260904191208 | 32 | 68 | 4.8 | 4.8 | 0.00 | 0.00 | 0.00 | 60 | 1006.7 |
| 20260904190752 | 33 | 338 | 1.6 | 1.6 | 0.00 | 0.00 | 0.00 | 61 | 1006.7 |
| 20260904190323 | 33 | 338 | 0.0 | 0.0 | 0.00 | 0.00 | 0.00 | 60 | 1007.7 |
| 20260904185852 | 33 | 22 | 3.2 | 3.2 | 0.00 | 0.00 | 0.00 | 55 | 1007.7 |
| 20260904185436 | 33 | 22 | 0.0 | 0.0 | 0.00 | 0.00 | 0.00 | 58 | 1007.7 |
| 20260904184531 | 32 | 45 | 0.0 | 0.0 | 0.00 | 0.00 | 0.00 | 53 | 1007.7 |
| 20260904184059 | 32 | 45 | 0.0 | 0.0 | 0.00 | 0.00 | 0.00 | 57 | 1007.7 |
| 20260904183641 | 32 | 112 | 3.2 | 3.2 | 0.00 | 0.00 | 0.00 | 54 | 1007.7 |
| 20260904183225 | 32 | 90 | 4.8 | 4.8 | 0.00 | 0.00 | 0.00 | 57 | 1007.7 |
| 20260904182809 | 31 | 90 | 4.8 | 4.8 | 0.00 | 0.00 | 0.00 | 56 | 1007.7 |
| 20260904182353 | 31 | 112 | 3.2 | 3.2 | 0.00 | 0.00 | 0.00 | 57 | 1007.7 |
| 20260904181937 | 31 | 22 | 4.8 | 4.8 | 0.00 | 0.00 | 0.00 | 57 | 1007.7 |
| 20260904181505 | 31 | 90 | 1.6 | 1.6 | 0.00 | 0.00 | 0.00 | 59 | 1007.7 |
| 20260904181048 | 32 | 292 | 3.2 | 3.2 | 0.00 | 0.00 | 0.00 | 57 | 1007.7 |
| 20260904180616 | 33 | 112 | 9.7 | 9.7 | 0.00 | 0.00 | 0.00 | 57 | 1007.7 |
| 20260904180128 | 34 | 112 | 4.8 | 4.8 | 0.00 | 0.00 | 0.00 | 55 | 1007.7 |
| 20260904175656 | 35 | 68 | 8.0 | 8.0 | 0.00 | 0.00 | 0.00 | 53 | 1007.7 |
| 20260904175224 | 34 | 248 | 0.0 | 0.0 | 0.00 | 0.00 | 0.00 | 50 | 1007.7 |
| 20260904174806 | 34 | 248 | 3.2 | 3.2 | 0.00 | 0.00 | 0.00 | 51 | 1007.7 |
| 20260904173411 | 34 | 248 | 3.2 | 3.2 | 0.00 | 0.00 | 0.00 | 51 | 1007.7 |
| 20260904172505 | 33 | 248 | 6.4 | 8.0 | 0.00 | 0.00 | 0.00 | 53 | 1007.7 |
| 20260904172047 | 33 | 248 | 3.2 | 3.2 | 0.00 | 0.00 | 0.00 | 53 | 1007.7 |
| 20260904171629 | 33 | 270 | 8.0 | 9.7 | 0.00 | 0.00 | 0.00 | 52 | 1008.8 |
| 20260904170712 | 34 | 248 | 4.8 | 6.4 | 0.00 | 0.00 | 0.00 | 53 | 1008.8 |
| 20260904170253 | 34 | 248 | 0.0 | 0.0 | 0.00 | 0.00 | 0.00 | 53 | 1008.8 |
| 20260904165836 | 33 | 270 | 3.2 | 3.2 | 0.00 | 0.00 | 0.00 | 53 | 1008.8 |
| 20260904164949 | 34 | 270 | 0.0 | 0.0 | 0.00 | 0.00 | 0.00 | 53 | 1008.8 |
| 20260904164532 | 34 | 248 | 1.6 | 1.6 | 0.00 | 0.00 | 0.00 | 51 | 1008.8 |
| 20260904164114 | 34 | 248 | 3.2 | 3.2 | 0.00 | 0.00 | 0.00 | 52 | 1008.8 |
| 20260904163644 | 34 | 22 | 3.2 | 3.2 | 0.00 | 0.00 | 0.00 | 53 | 1008.8 |
| 20260904163227 | 34 | 225 | 3.2 | 3.2 | 0.00 | 0.00 | 0.00 | 53 | 1008.8 |
| 20260904162809 | 33 | 135 | 0.0 | 0.0 | 0.00 | 0.00 | 0.00 | 53 | 1008.8 |
| 20260904162337 | 33 | 68 | 0.0 | 0.0 | 0.00 | 0.00 | 0.00 | 57 | 1008.8 |
| 20260904161921 | 33 | 68 | 3.2 | 3.2 | 0.00 | 0.00 | 0.00 | 60 | 1008.8 |
| 20260904161033 | 33 | 68 | 3.2 | 3.2 | 0.00 | 0.00 | 0.00 | 61 | 1008.8 |
| 20260904160617 | 33 | 90 | 3.2 | 3.2 | 0.00 | 0.00 | 0.00 | 59 | 1008.8 |
| 20260904160202 | 33 | 68 | 0.0 | 0.0 | 0.00 | 0.00 | 0.00 | 58 | 1008.8 |
| 20260904155746 | 33 | 68 | 3.2 | 3.2 | 0.00 | 0.00 | 0.00 | 59 | 1008.8 |
| 20260904155328 | 32 | 68 | 1.6 | 1.6 | 0.00 | 0.00 | 0.00 | 61 | 1008.8 |
| 20260904154911 | 32 | 68 | 0.0 | 0.0 | 0.00 | 0.00 | 0.00 | 60 | 1008.8 |
| 20260904154454 | 32 | 68 | 3.2 | 3.2 | 0.00 | 0.00 | 0.00 | 62 | 1008.8 |
| 20260904154023 | 32 | 68 | 3.2 | 3.2 | 0.00 | 0.00 | 0.00 | 63 | 1008.8 |
| 20260904153607 | 32 | 68 | 4.8 | 4.8 | 0.00 | 0.00 | 0.00 | 64 | 1008.8 |
| 20260904153149 | 32 | 90 | 3.2 | 3.2 | 0.00 | 0.00 | 0.00 | 64 | 1008.8 |
| 20260904152247 | 31 | 90 | 1.6 | 1.6 | 0.00 | 0.00 | 0.00 | 63 | 1008.8 |
| 20260904151827 | 31 | 90 | 0.0 | 0.0 | 0.00 | 0.00 | 0.00 | 66 | 1008.8 |
| 20260904151409 | 31 | 90 | 3.2 | 3.2 | 0.00 | 0.00 | 0.00 | 65 | 1008.8 |
| 20260904150951 | 31 | 90 | 3.2 | 3.2 | 0.00 | 0.00 | 0.00 | 65 | 1008.8 |
| 20260904150536 | 31 | 90 | 3.2 | 3.2 | 0.00 | 0.00 | 0.00 | 66 | 1008.8 |
| 20260904150120 | 31 | 90 | 3.2 | 3.2 | 0.00 | 0.00 | 0.00 | 64 | 1008.8 |
| 20260904145230 | 31 | 112 | 1.6 | 1.6 | 0.00 | 0.00 | 0.00 | 67 | 1008.8 |
| 20260904144758 | 31 | 112 | 1.6 | 1.6 | 0.00 | 0.00 | 0.00 | 66 | 1008.8 |
| 20260904144328 | 31 | 112 | 0.0 | 0.0 | 0.00 | 0.00 | 0.00 | 62 | 1008.8 |
| 20260904143854 | 30 | 112 | 1.6 | 1.6 | 0.00 | 0.00 | 0.00 | 65 | 1008.8 |
| 20260904143437 | 30 | 112 | 0.0 | 0.0 | 0.00 | 0.00 | 0.00 | 70 | 1008.8 |
| 20260904143006 | 30 | 112 | 0.0 | 0.0 | 0.00 | 0.00 | 0.00 | 62 | 1008.8 |
| 20260904142549 | 29 | 112 | 0.0 | 0.0 | 0.00 | 0.00 | 0.00 | 67 | 1008.8 |
| 20260904141703 | 28 | 112 | 3.2 | 3.2 | 0.00 | 0.00 | 0.00 | 72 | 1009.8 |
| 20260904141246 | 28 | 112 | 3.2 | 3.2 | 0.00 | 0.00 | 0.00 | 71 | 1009.8 |
| 20260904140832 | 28 | 158 | 3.2 | 3.2 | 0.00 | 0.00 | 0.00 | 71 | 1009.8 |
| 20260904140416 | 27 | 158 | 0.0 | 0.0 | 0.00 | 0.00 | 0.00 | 72 | 1009.8 |
| 20260904135958 | 26 | 158 | 1.6 | 1.6 | 0.00 | 0.00 | 0.00 | 74 | 1009.8 |
| 20260904135540 | 26 | 158 | 0.0 | 0.0 | 0.00 | 0.00 | 0.00 | 76 | 1009.8 |
| 20260904135123 | 26 | 158 | 0.0 | 0.0 | 0.00 | 0.00 | 0.00 | 79 | 1009.8 |
| 20260904134706 | 27 | 158 | 1.6 | 1.6 | 0.00 | 0.00 | 0.00 | 78 | 1009.8 |
| 20260904134235 | 27 | 180 | 1.6 | 1.6 | 0.00 | 0.00 | 0.00 | 75 | 1009.8 |
| 20260904133802 | 27 | 180 | 1.6 | 1.6 | 0.00 | 0.00 | 0.00 | 66 | 1009.8 |
| 20260904133346 | 26 | 180 | 0.0 | 0.0 | 0.00 | 0.00 | 0.00 | 70 | 1009.8 |
| 20260904132928 | 26 | 180 | 0.0 | 0.0 | 0.00 | 0.00 | 0.00 | 76 | 1009.8 |
| 20260904132042 | 23 | 180 | 1.6 | 1.6 | 0.00 | 0.00 | 0.00 | 80 | 1009.8 |
| 20260904131611 | 23 | 180 | 0.0 | 0.0 | 0.00 | 0.00 | 0.00 | 85 | 1009.8 |
| 20260904131155 | 23 | 180 | 0.0 | 0.0 | 0.00 | 0.00 | 0.00 | 85 | 1009.8 |
| 20260904130307 | 22 | 180 | 0.0 | 0.0 | 0.00 | 0.00 | 0.00 | 88 | 1009.8 |
| 20260904125419 | 22 | 180 | 0.0 | 0.0 | 0.00 | 0.00 | 0.00 | 89 | 1009.8 |
| 20260904125004 | 22 | 180 | 0.0 | 0.0 | 0.00 | 0.00 | 0.00 | 90 | 1009.8 |
| 20260904123217 | 21 | 248 | 0.0 | 0.0 | 0.00 | 0.00 | 0.00 | 91 | 1009.8 |
| 20260904122801 | 21 | 248 | 0.0 | 0.0 | 0.00 | 0.00 | 0.00 | 91 | 1009.8 |
| 20260904121902 | 21 | 248 | 0.0 | 0.0 | 0.00 | 0.00 | 0.00 | 92 | 1009.8 |
| 20260904121448 | 21 | 248 | 0.0 | 0.0 | 0.00 | 0.00 | 0.00 | 92 | 1009.8 |
| 20260904121034 | 21 | 248 | 0.0 | 0.0 | 0.00 | 0.00 | 0.00 | 92 | 1009.8 |
| 20260904120618 | 21 | 248 | 0.0 | 0.0 | 0.00 | 0.00 | 0.00 | 92 | 1009.8 |
| 20260904120201 | 21 | 202 | 0.0 | 0.0 | 0.00 | 0.00 | 0.00 | 92 | 1009.8 |
| 20260904115745 | 21 | 158 | 1.6 | 1.6 | 0.00 | 0.00 | 0.00 | 93 | 1009.8 |
| 20260904115331 | 21 | 112 | 0.0 | 0.0 | 0.00 | 0.00 | 0.00 | 93 | 1009.8 |
| 20260904114917 | 21 | 112 | 0.0 | 0.0 | 0.00 | 0.00 | 0.00 | 93 | 1009.8 |
| 20260904114502 | 21 | 112 | 1.6 | 1.6 | 0.00 | 0.00 | 0.00 | 93 | 1009.8 |
| 20260904113616 | 21 | 112 | 0.0 | 0.0 | 0.00 | 0.00 | 0.00 | 93 | 1009.8 |
| 20260904113201 | 21 | 112 | 0.0 | 0.0 | 0.00 | 0.00 | 0.00 | 93 | 1008.8 |
| 20260904112745 | 21 | 0 | 0.0 | 0.0 | 0.00 | 0.00 | 0.00 | 93 | 1008.8 |
| 20260904112329 | 21 | 0 | 0.0 | 0.0 | 0.00 | 0.00 | 0.00 | 93 | 1008.8 |
| 20260904111913 | 21 | 0 | 0.0 | 0.0 | 0.00 | 0.00 | 0.00 | 93 | 1008.8 |
| 20260904111457 | 21 | 0 | 0.0 | 0.0 | 0.00 | 0.00 | 0.00 | 93 | 1009.8 |
| 20260904111042 | 21 | 0 | 0.0 | 0.0 | 0.00 | 0.00 | 0.00 | 92 | 1009.8 |
| 20260904110626 | 21 | 0 | 0.0 | 0.0 | 0.00 | 0.00 | 0.00 | 93 | 1009.8 |
| 20260904110211 | 21 | 0 | 1.6 | 1.6 | 0.00 | 0.00 | 0.00 | 93 | 1008.8 |
| 20260904105308 | 21 | 22 | 0.0 | 0.0 | 0.00 | 0.00 | 0.00 | 92 | 1008.8 |
| 20260904104421 | 21 | 22 | 0.0 | 0.0 | 0.00 | 0.00 | 0.00 | 92 | 1008.8 |
| 20260904103950 | 21 | 45 | 0.0 | 0.0 | 0.00 | 0.00 | 0.00 | 92 | 1008.8 |
| 20260904103521 | 21 | 45 | 0.0 | 0.0 | 0.00 | 0.00 | 0.00 | 92 | 1008.8 |
| 20260904103105 | 21 | 45 | 0.0 | 0.0 | 0.00 | 0.00 | 0.00 | 92 | 1008.8 |
| 20260904102634 | 21 | 45 | 0.0 | 0.0 | 0.00 | 0.00 | 0.00 | 92 | 1008.8 |
| 20260904102220 | 21 | 45 | 0.0 | 0.0 | 0.00 | 0.00 | 0.00 | 92 | 1008.8 |
| 20260904101802 | 21 | 45 | 0.0 | 0.0 | 0.00 | 0.00 | 0.00 | 92 | 1008.8 |
| 20260904101347 | 21 | 45 | 0.0 | 0.0 | 0.00 | 0.00 | 0.00 | 92 | 1008.8 |
| 20260904100932 | 21 | 45 | 0.0 | 0.0 | 0.00 | 0.00 | 0.00 | 92 | 1008.8 |
| 20260904100517 | 21 | 45 | 0.0 | 0.0 | 0.00 | 0.00 | 0.00 | 92 | 1008.8 |
| 20260904095617 | 21 | 45 | 0.0 | 0.0 | 0.00 | 0.00 | 0.00 | 92 | 1008.8 |
| 20260904095159 | 21 | 45 | 0.0 | 0.0 | 0.00 | 0.00 | 0.00 | 92 | 1008.8 |
| 20260904094744 | 21 | 45 | 0.0 | 0.0 | 0.00 | 0.00 | 0.00 | 92 | 1008.8 |
| 20260904093843 | 21 | 45 | 0.0 | 0.0 | 0.00 | 0.00 | 0.00 | 93 | 1008.8 |
| 20260904092952 | 21 | 112 | 0.0 | 0.0 | 0.00 | 0.00 | 0.00 | 93 | 1008.8 |
| 20260904092036 | 21 | 112 | 0.0 | 0.0 | 0.00 | 0.00 | 0.00 | 93 | 1008.8 |
| 20260904091120 | 21 | 112 | 0.0 | 0.0 | 0.00 | 0.00 | 0.00 | 93 | 1008.8 |
| 20260904090704 | 21 | 112 | 0.0 | 0.0 | 0.00 | 0.00 | 0.00 | 93 | 1008.8 |
| 20260904090250 | 21 | 112 | 0.0 | 0.0 | 0.00 | 0.00 | 0.00 | 93 | 1008.8 |
| 20260904085834 | 21 | 112 | 0.0 | 0.0 | 0.00 | 0.00 | 0.00 | 93 | 1008.8 |
| 20260904085419 | 21 | 112 | 1.6 | 1.6 | 0.00 | 0.00 | 0.00 | 93 | 1008.8 |
| 20260904085003 | 21 | 112 | 0.0 | 0.0 | 0.00 | 0.00 | 0.00 | 93 | 1008.8 |
| 20260904084533 | 21 | 112 | 0.0 | 0.0 | 0.00 | 0.00 | 0.00 | 93 | 1007.7 |
| 20260904084118 | 21 | 112 | 0.0 | 0.0 | 0.00 | 0.00 | 0.00 | 93 | 1007.7 |
| 20260904083648 | 21 | 112 | 0.0 | 0.0 | 0.00 | 0.00 | 0.00 | 93 | 1007.7 |
| 20260904083233 | 21 | 112 | 0.0 | 0.0 | 0.00 | 0.00 | 0.00 | 93 | 1007.7 |
| 20260904082816 | 21 | 112 | 0.0 | 0.0 | 0.00 | 0.00 | 0.00 | 93 | 1008.8 |
| 20260904082347 | 21 | 112 | 0.0 | 0.0 | 0.00 | 0.00 | 0.00 | 93 | 1008.8 |
| 20260904081930 | 21 | 112 | 0.0 | 0.0 | 0.00 | 0.00 | 0.00 | 93 | 1008.8 |
| 20260904081502 | 21 | 112 | 0.0 | 0.0 | 0.00 | 0.00 | 0.00 | 94 | 1007.7 |
| 20260904081048 | 22 | 112 | 1.6 | 1.6 | 0.00 | 0.00 | 0.00 | 94 | 1007.7 |
| 20260904080617 | 22 | 112 | 1.6 | 1.6 | 0.00 | 0.00 | 0.00 | 93 | 1007.7 |
| 20260904075730 | 22 | 112 | 0.0 | 0.0 | 0.00 | 0.00 | 0.00 | 93 | 1007.7 |
| 20260904075314 | 22 | 112 | 3.2 | 3.2 | 0.00 | 0.00 | 0.00 | 93 | 1007.7 |
| 20260904074858 | 22 | 112 | 0.0 | 0.0 | 0.00 | 0.00 | 0.00 | 93 | 1007.7 |
| 20260904074443 | 22 | 112 | 1.6 | 1.6 | 0.00 | 0.00 | 0.00 | 93 | 1007.7 |
| 20260904074012 | 22 | 68 | 3.2 | 3.2 | 0.00 | 0.00 | 0.00 | 93 | 1007.7 |
| 20260904073539 | 22 | 68 | 0.0 | 0.0 | 0.00 | 0.00 | 0.00 | 94 | 1007.7 |
| 20260904073108 | 22 | 68 | 0.0 | 0.0 | 0.00 | 0.00 | 0.00 | 93 | 1008.8 |
| 20260904072654 | 22 | 68 | 1.6 | 1.6 | 0.00 | 0.00 | 0.00 | 93 | 1008.8 |
| 20260904072238 | 22 | 68 | 1.6 | 1.6 | 0.00 | 0.00 | 0.00 | 93 | 1008.8 |
| 20260904071824 | 22 | 68 | 0.0 | 0.0 | 0.00 | 0.00 | 0.00 | 93 | 1008.8 |
| 20260904071406 | 22 | 68 | 0.0 | 0.0 | 0.00 | 0.00 | 0.00 | 93 | 1008.8 |
| 20260904070951 | 22 | 68 | 3.2 | 3.2 | 0.00 | 0.00 | 0.00 | 93 | 1008.8 |
| 20260904070535 | 22 | 68 | 1.6 | 1.6 | 0.00 | 0.00 | 0.00 | 93 | 1008.8 |
| 20260904070120 | 22 | 68 | 3.2 | 3.2 | 0.00 | 0.00 | 0.00 | 93 | 1008.8 |
| 20260904065233 | 22 | 68 | 0.0 | 0.0 | 0.00 | 0.00 | 0.00 | 93 | 1008.8 |
| 20260904064815 | 22 | 68 | 0.0 | 0.0 | 0.00 | 0.00 | 0.00 | 93 | 1008.8 |
| 20260904064358 | 22 | 68 | 0.0 | 0.0 | 0.00 | 0.00 | 0.00 | 93 | 1008.8 |
| 20260904063941 | 22 | 68 | 0.0 | 0.0 | 0.00 | 0.00 | 0.00 | 93 | 1008.8 |
| 20260904063525 | 22 | 68 | 0.0 | 0.0 | 0.00 | 0.00 | 0.00 | 92 | 1008.8 |
| 20260904063053 | 22 | 68 | 0.0 | 0.0 | 0.00 | 0.00 | 0.00 | 92 | 1008.8 |
| 20260904062622 | 22 | 68 | 0.0 | 0.0 | 0.00 | 0.00 | 0.00 | 92 | 1008.8 |
| 20260904062207 | 22 | 68 | 3.2 | 3.2 | 0.00 | 0.00 | 0.00 | 92 | 1008.8 |
| 20260904061751 | 22 | 68 | 1.6 | 1.6 | 0.00 | 0.00 | 0.00 | 92 | 1008.8 |
| 20260904061336 | 22 | 68 | 0.0 | 0.0 | 0.00 | 0.00 | 0.00 | 92 | 1008.8 |
| 20260904060449 | 22 | 68 | 0.0 | 0.0 | 0.00 | 0.00 | 0.00 | 92 | 1008.8 |
| 20260904060019 | 22 | 68 | 0.0 | 0.0 | 0.00 | 0.00 | 0.00 | 92 | 1008.8 |
| 20260904055603 | 22 | 68 | 0.0 | 0.0 | 0.00 | 0.00 | 0.00 | 91 | 1008.8 |
| 20260904054717 | 22 | 68 | 0.0 | 0.0 | 0.00 | 0.00 | 0.00 | 91 | 1008.8 |
| 20260904053815 | 22 | 68 | 0.0 | 0.0 | 0.00 | 0.00 | 0.00 | 91 | 1008.8 |
| 20260904053359 | 22 | 112 | 3.2 | 3.2 | 0.00 | 0.00 | 0.00 | 91 | 1008.8 |
| 20260904052927 | 22 | 45 | 0.0 | 0.0 | 0.00 | 0.00 | 0.00 | 91 | 1009.8 |
| 20260904052418 | 22 | 45 | 0.0 | 0.0 | 0.00 | 0.00 | 0.00 | 91 | 1009.8 |
| 20260904051842 | 22 | 45 | 1.6 | 1.6 | 0.00 | 0.00 | 0.00 | 91 | 1009.8 |
| 20260904051213 | 22 | 22 | 0.0 | 0.0 | 0.00 | 0.00 | 0.00 | 91 | 1009.8 |
| 20260904050645 | 22 | 22 | 0.0 | 0.0 | 0.00 | 0.00 | 0.00 | 91 | 1009.8 |
| 20260904050034 | 22 | 22 | 0.0 | 0.0 | 0.00 | 0.00 | 0.00 | 92 | 1009.8 |
| 20260904044826 | 22 | 22 | 0.0 | 0.0 | 0.00 | 0.00 | 0.00 | 92 | 1009.8 |
| 20260904044248 | 22 | 22 | 1.6 | 1.6 | 0.00 | 0.00 | 0.00 | 92 | 1009.8 |
| 20260904043619 | 22 | 45 | 0.0 | 0.0 | 0.00 | 0.00 | 0.00 | 92 | 1009.8 |
| 20260904043026 | 22 | 45 | 0.0 | 0.0 | 0.00 | 0.00 | 0.00 | 92 | 1009.8 |
| 20260904041822 | 23 | 22 | 0.0 | 0.0 | 0.00 | 0.00 | 0.00 | 91 | 1009.8 |
| 20260904041219 | 23 | 22 | 0.0 | 0.0 | 0.00 | 0.00 | 0.00 | 91 | 1009.8 |
| 20260904040620 | 23 | 22 | 0.0 | 0.0 | 0.00 | 0.00 | 0.00 | 91 | 1009.8 |
| 20260904040025 | 23 | 22 | 3.2 | 3.2 | 0.00 | 0.00 | 0.00 | 92 | 1009.8 |
| 20260904034217 | 23 | 22 | 3.2 | 3.2 | 0.00 | 0.00 | 0.00 | 91 | 1009.8 |
| 20260904033614 | 23 | 22 | 0.0 | 0.0 | 0.00 | 0.00 | 0.00 | 91 | 1009.8 |
| 20260904032426 | 24 | 22 | 0.0 | 0.0 | 0.00 | 0.00 | 0.00 | 89 | 1009.8 |
| 20260904031807 | 24 | 22 | 0.0 | 0.0 | 0.00 | 0.00 | 0.00 | 88 | 1009.8 |
| 20260904031220 | 23 | 22 | 0.0 | 0.0 | 0.00 | 0.00 | 0.00 | 88 | 1009.8 |
| 20260904030630 | 23 | 68 | 1.6 | 1.6 | 0.00 | 0.00 | 0.00 | 91 | 1009.8 |
| 20260904030036 | 23 | 90 | 0.0 | 0.0 | 0.00 | 0.00 | 0.00 | 90 | 1009.8 |
| 20260904025411 | 23 | 90 | 0.0 | 0.0 | 0.00 | 0.00 | 0.00 | 90 | 1009.8 |
| 20260904024825 | 23 | 22 | 1.6 | 1.6 | 0.00 | 0.00 | 0.00 | 90 | 1009.8 |
| 20260904024224 | 23 | 22 | 0.0 | 0.0 | 0.00 | 0.00 | 0.00 | 90 | 1009.8 |
| 20260904023042 | 23 | 0 | 0.0 | 0.0 | 0.00 | 0.00 | 0.00 | 90 | 1009.8 |
| 20260904022433 | 24 | 0 | 1.6 | 1.6 | 0.00 | 0.00 | 0.00 | 90 | 1009.8 |
| 20260904021206 | 24 | 0 | 0.0 | 0.0 | 0.00 | 0.00 | 0.00 | 88 | 1008.8 |
| 20260904020642 | 24 | 0 | 0.0 | 0.0 | 0.00 | 0.00 | 0.00 | 88 | 1008.8 |